Hlavní strana
METAR-TAF:

METAR-TAF

Letiště :

Istres, Francie

zeměpisná šířka: 43-31N, zeměpisná délka: 004-56E, výška: 23 m

Aktuální stav počasí

Zpráva byla vytvořena před 25 minutami, v 22:30 UTC
Východoseverovýchodní vítr 3 kt
Teplota 8°C
Vlhkost vzduchu 81%
Tlak 1022 hPa
Viditelnost 10 km a více
Žádná oblačnost pod 1500 m, nevyskytují se cumulonimby.

METAR: LFMI 042230Z AUTO 06003KT CAVOK 08/05 Q1022 NOSIG

Čas: 00:55 (22:55 UTC)

Předpověď počasí

Zpráva byla vytvořena před 2 hodinami a 55 minutami, v 20:00 UTC
Předpověď platná od 04 v 21 UTC do 05 v 21 UTC
Východní vítr 5 kt
Viditelnost 10 km a více
Žádná oblačnost pod 1500 m, nevyskytují se cumulonimby.
Změna
od 05 v 09 UTC do 05 v 11 UTC
Jižní vítr 10 kt
Dočasný
od 05 v 12 UTC do 05 v 16 UTC
Jižní vítr 15 kt s nárazy do 25 kt
Změna
od 05 v 17 UTC do 05 v 19 UTC
vítr z různých směrů 3 kt

TAF: LFMI 042000Z 0421/0521 10005KT CAVOK BECMG 0509/0511 18010KT TEMPO 0512/0516 17015G25KT BECMG 0517/0519 VRB03KT

Stav a předpovědi počasí z více než 4 000 letišť (zprávy METAR a TAF).

Červené a žluté tečky na mapě představují dostupné meteorologické stanice.

Když kurzor umístíte na tečku, zobrazí se název stanice.

Pak kliknutím zobrazíte stav a předpověď počasí.

Chcete-li změnit mapu, kliknutím na zelené tlačítko se znaménkem +mapu přiblížíte, kliknutím na zelené tlačítko se znaménkem – mapu oddálíte a kliknutím na zelené šipky přejdete na sousední mapy.


METAR-TAF: